Tropical Cyclones
[Index]
Main Index Home Page Stock Weather Photos Extreme Storms Discussion Storm News and Storm Chasing Reports Tropical Cyclones / Hurricanes / Typhoons Weather Data and Links Wild Fires / Bushfires Weather Observation Techniques Weather Picture Catalogue Tornado Pictures and Reports Stock Video Footage and DVDs for sale
Season 2009-2010 Tropical Cyclone PAUL Track Map
Season 2009-2010 Summaries (Operational Data): [AU] [SIO] [SPAC] [SH]
<<- Previous TC | 2009-2010 Season | Next TC ->>

click for intensity scale information  Lat/long Grid: Show Hide

 Date Labels: Show Hide

Operational Tropical Cyclone Data : JTWC Advisories | BoM Warnings

Name: PAUL
Number: 1022

26 Mar 2010 06:00 UTC to 01 Apr 2010 00:00 UTC

    date/time    lat    long     hPa   cat  kts
2010-03-26 06    9.5   134.5    1004         25          
2010-03-26 12    9.8   133.6    1005         25          
2010-03-26 18   10.2   133.9    1003         25          
2010-03-27 00   10.7   135.3    1003         25          
2010-03-27 06   11.2   136.4    1001         30          
2010-03-27 09   11.6   136.8    1000         30          
2010-03-27 12   12.3   136.9    1001         30          
2010-03-27 18   12.8   136.5     999         30          
2010-03-28 00   13.1   136.5     995    1    40          
2010-03-28 06   13.0   136.6     994    1    40          
2010-03-28 12   12.9   136.5     991    1    45          
2010-03-28 18   13.0   136.7     988    2    50          
2010-03-29 00   13.3   136.4     987    2    50          
2010-03-29 06   13.3   136.2     982    2    55          
2010-03-29 12   13.4   136.0     982    2    55          
2010-03-29 18   13.1   135.7     985    2    55          
2010-03-30 00   13.3   135.3     993    1    40          
2010-03-30 06   13.2   135.1     996         30          
2010-03-30 12   13.2   134.9     996         30          
2010-03-30 18   13.5   134.9     997         30          
2010-03-31 00   13.8   134.9     998         30          
2010-03-31 06   14.3   135.5     997         30          
2010-03-31 12   14.3   135.7     997         30          
2010-03-31 18   14.5   136.1     998         30          
2010-04-01 00   14.8   136.8     998         30          
Winds are 10-min average.

Tropical cyclone tracks developed by Michael Bath using operational warnings and advisories and Google Maps.


[Australian Severe Weather index] [Copyright Notice] [Email Contacts] [Search This Site] [Privacy Policy]
Document: tropical_cyclone_paul.htm Updated: 28 May 2013